sensor_id;sensor_type;location;lat;lon;timestamp;P1;durP1;ratioP1;P2;durP2;ratioP2
5912;SDS011;2982;42.684;23.356;2023-08-07T00:00:03;0.73;;;0.73;;
5912;SDS011;2982;42.684;23.356;2023-08-07T00:02:30;2.13;;;0.70;;
5912;SDS011;2982;42.684;23.356;2023-08-07T00:04:55;0.68;;;0.68;;
5912;SDS011;2982;42.684;23.356;2023-08-07T00:07:20;0.70;;;0.70;;
5912;SDS011;2982;42.684;23.356;2023-08-07T00:09:46;0.80;;;0.80;;
5912;SDS011;2982;42.684;23.356;2023-08-07T00:12:11;0.68;;;0.68;;
5912;SDS011;2982;42.684;23.356;2023-08-07T00:14:36;0.75;;;0.75;;
5912;SDS011;2982;42.684;23.356;2023-08-07T00:17:02;1.10;;;1.10;;
5912;SDS011;2982;42.684;23.356;2023-08-07T00:19:27;1.02;;;1.00;;
5912;SDS011;2982;42.684;23.356;2023-08-07T00:21:52;2.92;;;0.82;;
5912;SDS011;2982;42.684;23.356;2023-08-07T00:24:18;1.00;;;1.00;;
5912;SDS011;2982;42.684;23.356;2023-08-07T00:26:43;1.13;;;1.02;;
5912;SDS011;2982;42.684;23.356;2023-08-07T00:29:08;1.13;;;1.00;;
5912;SDS011;2982;42.684;23.356;2023-08-07T00:31:33;0.80;;;0.80;;
5912;SDS011;2982;42.684;23.356;2023-08-07T00:33:59;1.13;;;0.82;;
5912;SDS011;2982;42.684;23.356;2023-08-07T00:36:24;1.45;;;1.10;;
5912;SDS011;2982;42.684;23.356;2023-08-07T00:38:50;1.02;;;1.02;;
5912;SDS011;2982;42.684;23.356;2023-08-07T00:41:16;1.08;;;0.98;;
5912;SDS011;2982;42.684;23.356;2023-08-07T00:43:42;0.90;;;0.90;;
5912;SDS011;2982;42.684;23.356;2023-08-07T00:46:07;1.27;;;1.17;;
5912;SDS011;2982;42.684;23.356;2023-08-07T00:48:32;1.02;;;1.02;;
5912;SDS011;2982;42.684;23.356;2023-08-07T00:50:58;1.52;;;1.30;;
5912;SDS011;2982;42.684;23.356;2023-08-07T00:53:23;1.02;;;1.02;;
5912;SDS011;2982;42.684;23.356;2023-08-07T00:55:49;1.17;;;1.10;;
5912;SDS011;2982;42.684;23.356;2023-08-07T00:58:14;1.63;;;1.20;;
5912;SDS011;2982;42.684;23.356;2023-08-07T01:00:39;1.40;;;1.30;;
5912;SDS011;2982;42.684;23.356;2023-08-07T01:03:05;0.93;;;0.93;;
5912;SDS011;2982;42.684;23.356;2023-08-07T01:05:30;1.30;;;1.30;;
5912;SDS011;2982;42.684;23.356;2023-08-07T01:07:56;2.78;;;1.63;;
5912;SDS011;2982;42.684;23.356;2023-08-07T01:10:43;1.88;;;1.20;;
5912;SDS011;2982;42.684;23.356;2023-08-07T01:13:34;1.40;;;1.30;;
5912;SDS011;2982;42.684;23.356;2023-08-07T01:16:19;1.80;;;1.70;;
5912;SDS011;2982;42.684;23.356;2023-08-07T01:18:49;1.50;;;1.40;;
5912;SDS011;2982;42.684;23.356;2023-08-07T01:21:19;1.80;;;1.70;;
5912;SDS011;2982;42.684;23.356;2023-08-07T01:23:46;1.83;;;1.73;;
5912;SDS011;2982;42.684;23.356;2023-08-07T01:26:12;1.70;;;1.60;;
5912;SDS011;2982;42.684;23.356;2023-08-07T01:28:38;2.25;;;2.15;;
5912;SDS011;2982;42.684;23.356;2023-08-07T01:31:11;1.90;;;1.80;;
5912;SDS011;2982;42.684;23.356;2023-08-07T01:36:36;2.38;;;2.28;;
5912;SDS011;2982;42.684;23.356;2023-08-07T01:39:04;3.00;;;2.58;;
5912;SDS011;2982;42.684;23.356;2023-08-07T01:41:30;2.67;;;2.58;;
5912;SDS011;2982;42.684;23.356;2023-08-07T01:43:55;2.58;;;2.05;;
5912;SDS011;2982;42.684;23.356;2023-08-07T01:46:22;2.70;;;2.60;;
5912;SDS011;2982;42.684;23.356;2023-08-07T01:48:47;2.92;;;2.83;;
5912;SDS011;2982;42.684;23.356;2023-08-07T01:51:13;2.83;;;2.72;;
5912;SDS011;2982;42.684;23.356;2023-08-07T01:53:38;2.60;;;2.40;;
5912;SDS011;2982;42.684;23.356;2023-08-07T01:56:03;3.13;;;2.83;;
5912;SDS011;2982;42.684;23.356;2023-08-07T01:58:29;3.45;;;3.17;;
5912;SDS011;2982;42.684;23.356;2023-08-07T02:00:54;2.60;;;2.50;;
5912;SDS011;2982;42.684;23.356;2023-08-07T02:03:19;3.08;;;2.97;;
5912;SDS011;2982;42.684;23.356;2023-08-07T02:05:48;3.20;;;2.90;;
5912;SDS011;2982;42.684;23.356;2023-08-07T02:08:13;3.05;;;2.85;;
5912;SDS011;2982;42.684;23.356;2023-08-07T02:11:00;2.75;;;2.60;;
5912;SDS011;2982;42.684;23.356;2023-08-07T02:13:25;3.45;;;3.28;;
5912;SDS011;2982;42.684;23.356;2023-08-07T02:15:50;2.53;;;2.42;;
5912;SDS011;2982;42.684;23.356;2023-08-07T02:18:15;3.03;;;2.92;;
5912;SDS011;2982;42.684;23.356;2023-08-07T02:20:41;2.78;;;2.58;;
5912;SDS011;2982;42.684;23.356;2023-08-07T02:23:06;2.90;;;2.78;;
5912;SDS011;2982;42.684;23.356;2023-08-07T02:25:31;3.10;;;2.90;;
5912;SDS011;2982;42.684;23.356;2023-08-07T02:27:56;3.15;;;2.83;;
5912;SDS011;2982;42.684;23.356;2023-08-07T02:30:21;2.75;;;2.65;;
5912;SDS011;2982;42.684;23.356;2023-08-07T02:32:46;2.95;;;2.75;;
5912;SDS011;2982;42.684;23.356;2023-08-07T02:35:11;3.08;;;2.80;;
5912;SDS011;2982;42.684;23.356;2023-08-07T02:37:37;3.08;;;2.97;;
5912;SDS011;2982;42.684;23.356;2023-08-07T02:40:02;3.15;;;3.00;;
5912;SDS011;2982;42.684;23.356;2023-08-07T02:42:27;3.25;;;3.03;;
5912;SDS011;2982;42.684;23.356;2023-08-07T02:44:52;3.20;;;3.00;;
5912;SDS011;2982;42.684;23.356;2023-08-07T02:47:17;4.00;;;2.77;;
5912;SDS011;2982;42.684;23.356;2023-08-07T02:49:42;2.92;;;2.72;;
5912;SDS011;2982;42.684;23.356;2023-08-07T02:52:07;3.97;;;3.67;;
5912;SDS011;2982;42.684;23.356;2023-08-07T02:54:33;5.23;;;3.17;;
5912;SDS011;2982;42.684;23.356;2023-08-07T02:56:58;3.42;;;3.22;;
5912;SDS011;2982;42.684;23.356;2023-08-07T02:59:23;3.50;;;3.30;;
5912;SDS011;2982;42.684;23.356;2023-08-07T03:01:49;3.67;;;3.45;;
5912;SDS011;2982;42.684;23.356;2023-08-07T03:04:14;3.55;;;3.35;;
5912;SDS011;2982;42.684;23.356;2023-08-07T03:06:39;3.00;;;2.85;;
5912;SDS011;2982;42.684;23.356;2023-08-07T03:09:04;6.32;;;3.05;;
5912;SDS011;2982;42.684;23.356;2023-08-07T03:11:30;3.30;;;3.08;;
5912;SDS011;2982;42.684;23.356;2023-08-07T03:13:55;3.67;;;3.47;;
5912;SDS011;2982;42.684;23.356;2023-08-07T03:16:20;3.23;;;3.03;;
5912;SDS011;2982;42.684;23.356;2023-08-07T03:18:45;3.88;;;3.67;;
5912;SDS011;2982;42.684;23.356;2023-08-07T03:21:10;3.90;;;3.58;;
5912;SDS011;2982;42.684;23.356;2023-08-07T03:23:35;3.08;;;2.88;;
5912;SDS011;2982;42.684;23.356;2023-08-07T03:26:04;4.00;;;3.60;;
5912;SDS011;2982;42.684;23.356;2023-08-07T03:28:30;3.05;;;2.95;;
5912;SDS011;2982;42.684;23.356;2023-08-07T03:30:55;3.30;;;3.10;;
5912;SDS011;2982;42.684;23.356;2023-08-07T03:33:20;3.33;;;3.03;;
5912;SDS011;2982;42.684;23.356;2023-08-07T03:35:45;3.70;;;3.37;;
5912;SDS011;2982;42.684;23.356;2023-08-07T03:38:10;3.53;;;3.33;;
5912;SDS011;2982;42.684;23.356;2023-08-07T03:40:36;3.65;;;3.45;;
5912;SDS011;2982;42.684;23.356;2023-08-07T03:43:01;3.13;;;2.88;;
5912;SDS011;2982;42.684;23.356;2023-08-07T03:45:26;3.47;;;3.28;;
5912;SDS011;2982;42.684;23.356;2023-08-07T03:47:51;3.28;;;3.08;;
5912;SDS011;2982;42.684;23.356;2023-08-07T03:50:16;3.97;;;3.75;;
5912;SDS011;2982;42.684;23.356;2023-08-07T03:52:41;3.15;;;2.95;;
5912;SDS011;2982;42.684;23.356;2023-08-07T03:55:06;3.17;;;2.78;;
5912;SDS011;2982;42.684;23.356;2023-08-07T03:57:31;3.17;;;2.97;;
5912;SDS011;2982;42.684;23.356;2023-08-07T03:59:57;3.08;;;2.88;;
5912;SDS011;2982;42.684;23.356;2023-08-07T04:02:22;3.67;;;3.38;;
5912;SDS011;2982;42.684;23.356;2023-08-07T04:04:47;2.53;;;2.42;;
5912;SDS011;2982;42.684;23.356;2023-08-07T04:07:12;5.65;;;3.65;;
5912;SDS011;2982;42.684;23.356;2023-08-07T04:09:37;2.83;;;2.40;;
5912;SDS011;2982;42.684;23.356;2023-08-07T04:12:02;2.88;;;2.72;;
5912;SDS011;2982;42.684;23.356;2023-08-07T04:14:28;3.05;;;2.83;;
5912;SDS011;2982;42.684;23.356;2023-08-07T04:16:53;2.83;;;2.63;;
5912;SDS011;2982;42.684;23.356;2023-08-07T04:19:18;3.03;;;2.83;;
5912;SDS011;2982;42.684;23.356;2023-08-07T04:21:43;2.17;;;2.08;;
5912;SDS011;2982;42.684;23.356;2023-08-07T04:24:08;5.03;;;3.35;;
5912;SDS011;2982;42.684;23.356;2023-08-07T04:26:33;3.22;;;2.65;;
5912;SDS011;2982;42.684;23.356;2023-08-07T04:28:58;2.33;;;2.22;;
5912;SDS011;2982;42.684;23.356;2023-08-07T04:31:24;2.63;;;2.53;;
5912;SDS011;2982;42.684;23.356;2023-08-07T04:33:49;2.40;;;2.30;;
5912;SDS011;2982;42.684;23.356;2023-08-07T04:36:14;2.33;;;2.22;;
5912;SDS011;2982;42.684;23.356;2023-08-07T04:38:39;2.35;;;2.15;;
5912;SDS011;2982;42.684;23.356;2023-08-07T04:41:04;2.28;;;2.17;;
5912;SDS011;2982;42.684;23.356;2023-08-07T04:43:29;2.40;;;2.30;;
5912;SDS011;2982;42.684;23.356;2023-08-07T04:45:54;4.33;;;2.17;;
5912;SDS011;2982;42.684;23.356;2023-08-07T04:48:19;2.30;;;2.20;;
5912;SDS011;2982;42.684;23.356;2023-08-07T04:50:45;2.60;;;2.50;;
5912;SDS011;2982;42.684;23.356;2023-08-07T04:53:10;2.20;;;2.10;;
5912;SDS011;2982;42.684;23.356;2023-08-07T04:55:35;1.60;;;1.50;;
5912;SDS011;2982;42.684;23.356;2023-08-07T04:58:00;1.40;;;1.40;;
5912;SDS011;2982;42.684;23.356;2023-08-07T05:00:26;1.67;;;1.58;;
5912;SDS011;2982;42.684;23.356;2023-08-07T05:02:52;2.08;;;1.77;;
5912;SDS011;2982;42.684;23.356;2023-08-07T05:05:17;2.40;;;1.58;;
5912;SDS011;2982;42.684;23.356;2023-08-07T05:07:42;3.20;;;1.23;;
5912;SDS011;2982;42.684;23.356;2023-08-07T05:10:08;3.10;;;1.57;;
5912;SDS011;2982;42.684;23.356;2023-08-07T05:12:33;1.80;;;1.50;;
5912;SDS011;2982;42.684;23.356;2023-08-07T05:14:59;1.92;;;1.13;;
5912;SDS011;2982;42.684;23.356;2023-08-07T05:17:24;1.23;;;1.23;;
5912;SDS011;2982;42.684;23.356;2023-08-07T05:19:49;1.50;;;1.40;;
5912;SDS011;2982;42.684;23.356;2023-08-07T05:22:15;2.13;;;1.45;;
5912;SDS011;2982;42.684;23.356;2023-08-07T05:24:40;1.08;;;1.08;;
5912;SDS011;2982;42.684;23.356;2023-08-07T05:27:05;1.75;;;1.30;;
5912;SDS011;2982;42.684;23.356;2023-08-07T05:29:31;1.50;;;1.40;;
5912;SDS011;2982;42.684;23.356;2023-08-07T05:31:56;1.35;;;1.25;;
5912;SDS011;2982;42.684;23.356;2023-08-07T05:34:21;2.20;;;1.27;;
5912;SDS011;2982;42.684;23.356;2023-08-07T05:36:46;1.30;;;1.30;;
5912;SDS011;2982;42.684;23.356;2023-08-07T05:39:11;1.60;;;1.40;;
5912;SDS011;2982;42.684;23.356;2023-08-07T05:41:36;1.67;;;1.58;;
5912;SDS011;2982;42.684;23.356;2023-08-07T05:44:02;1.10;;;1.10;;
5912;SDS011;2982;42.684;23.356;2023-08-07T05:46:27;2.45;;;1.73;;
5912;SDS011;2982;42.684;23.356;2023-08-07T05:48:52;2.70;;;1.33;;
5912;SDS011;2982;42.684;23.356;2023-08-07T05:51:17;1.40;;;1.30;;
5912;SDS011;2982;42.684;23.356;2023-08-07T05:53:42;2.78;;;1.60;;
5912;SDS011;2982;42.684;23.356;2023-08-07T05:56:07;2.75;;;1.52;;
5912;SDS011;2982;42.684;23.356;2023-08-07T05:58:32;1.38;;;1.27;;
5912;SDS011;2982;42.684;23.356;2023-08-07T06:00:58;1.25;;;1.20;;
5912;SDS011;2982;42.684;23.356;2023-08-07T06:03:23;1.58;;;1.17;;
5912;SDS011;2982;42.684;23.356;2023-08-07T06:05:48;0.88;;;0.88;;
5912;SDS011;2982;42.684;23.356;2023-08-07T06:08:13;1.23;;;1.20;;
5912;SDS011;2982;42.684;23.356;2023-08-07T06:10:38;1.75;;;1.13;;
5912;SDS011;2982;42.684;23.356;2023-08-07T06:13:03;1.83;;;1.37;;
5912;SDS011;2982;42.684;23.356;2023-08-07T06:15:29;1.25;;;1.10;;
5912;SDS011;2982;42.684;23.356;2023-08-07T06:17:54;3.22;;;1.52;;
5912;SDS011;2982;42.684;23.356;2023-08-07T06:20:19;17.75;;;3.28;;
5912;SDS011;2982;42.684;23.356;2023-08-07T06:22:44;1.80;;;1.70;;
5912;SDS011;2982;42.684;23.356;2023-08-07T06:25:09;2.40;;;1.13;;
5912;SDS011;2982;42.684;23.356;2023-08-07T06:27:35;2.35;;;1.38;;
5912;SDS011;2982;42.684;23.356;2023-08-07T06:30:00;3.37;;;1.37;;
5912;SDS011;2982;42.684;23.356;2023-08-07T06:32:25;1.67;;;1.13;;
5912;SDS011;2982;42.684;23.356;2023-08-07T06:34:50;1.27;;;1.27;;
5912;SDS011;2982;42.684;23.356;2023-08-07T06:37:15;2.33;;;1.20;;
5912;SDS011;2982;42.684;23.356;2023-08-07T06:39:41;1.30;;;1.20;;
5912;SDS011;2982;42.684;23.356;2023-08-07T06:42:06;1.77;;;1.67;;
5912;SDS011;2982;42.684;23.356;2023-08-07T06:44:31;3.50;;;1.23;;
5912;SDS011;2982;42.684;23.356;2023-08-07T06:46:56;0.73;;;0.73;;
5912;SDS011;2982;42.684;23.356;2023-08-07T06:49:21;1.23;;;0.90;;
5912;SDS011;2982;42.684;23.356;2023-08-07T06:51:46;1.35;;;1.02;;
5912;SDS011;2982;42.684;23.356;2023-08-07T06:54:12;0.80;;;0.80;;
5912;SDS011;2982;42.684;23.356;2023-08-07T06:56:37;0.70;;;0.70;;
5912;SDS011;2982;42.684;23.356;2023-08-07T06:59:02;0.77;;;0.77;;
5912;SDS011;2982;42.684;23.356;2023-08-07T07:01:27;0.82;;;0.82;;
5912;SDS011;2982;42.684;23.356;2023-08-07T07:03:52;0.95;;;0.95;;
5912;SDS011;2982;42.684;23.356;2023-08-07T07:06:18;2.03;;;1.00;;
5912;SDS011;2982;42.684;23.356;2023-08-07T07:08:43;0.80;;;0.80;;
5912;SDS011;2982;42.684;23.356;2023-08-07T07:11:08;1.38;;;1.27;;
5912;SDS011;2982;42.684;23.356;2023-08-07T07:13:33;1.20;;;1.10;;
5912;SDS011;2982;42.684;23.356;2023-08-07T07:15:59;1.57;;;0.80;;
5912;SDS011;2982;42.684;23.356;2023-08-07T07:18:24;1.00;;;0.93;;
5912;SDS011;2982;42.684;23.356;2023-08-07T07:20:55;1.08;;;1.08;;
5912;SDS011;2982;42.684;23.356;2023-08-07T07:23:21;1.05;;;1.05;;
5912;SDS011;2982;42.684;23.356;2023-08-07T07:25:46;1.80;;;0.90;;
5912;SDS011;2982;42.684;23.356;2023-08-07T07:28:11;1.10;;;1.00;;
5912;SDS011;2982;42.684;23.356;2023-08-07T07:30:38;0.70;;;0.70;;
5912;SDS011;2982;42.684;23.356;2023-08-07T07:33:03;1.08;;;0.88;;
5912;SDS011;2982;42.684;23.356;2023-08-07T07:35:28;1.70;;;0.73;;
5912;SDS011;2982;42.684;23.356;2023-08-07T07:37:54;0.75;;;0.75;;
5912;SDS011;2982;42.684;23.356;2023-08-07T07:40:19;1.92;;;1.13;;
5912;SDS011;2982;42.684;23.356;2023-08-07T07:42:44;0.80;;;0.80;;
5912;SDS011;2982;42.684;23.356;2023-08-07T07:45:09;0.70;;;0.70;;
5912;SDS011;2982;42.684;23.356;2023-08-07T07:47:34;0.60;;;0.60;;
5912;SDS011;2982;42.684;23.356;2023-08-07T07:50:06;0.80;;;0.80;;
5912;SDS011;2982;42.684;23.356;2023-08-07T07:52:32;1.67;;;0.70;;
5912;SDS011;2982;42.684;23.356;2023-08-07T07:54:57;2.10;;;0.80;;
5912;SDS011;2982;42.684;23.356;2023-08-07T07:57:22;1.08;;;1.05;;
5912;SDS011;2982;42.684;23.356;2023-08-07T07:59:47;0.60;;;0.60;;
5912;SDS011;2982;42.684;23.356;2023-08-07T08:02:12;0.73;;;0.73;;
5912;SDS011;2982;42.684;23.356;2023-08-07T08:04:38;1.98;;;0.90;;
5912;SDS011;2982;42.684;23.356;2023-08-07T08:07:03;0.98;;;0.98;;
5912;SDS011;2982;42.684;23.356;2023-08-07T08:09:28;1.05;;;0.90;;
5912;SDS011;2982;42.684;23.356;2023-08-07T08:11:53;0.80;;;0.80;;
5912;SDS011;2982;42.684;23.356;2023-08-07T08:14:18;1.08;;;0.70;;
5912;SDS011;2982;42.684;23.356;2023-08-07T08:16:43;0.65;;;0.65;;
5912;SDS011;2982;42.684;23.356;2023-08-07T08:19:08;1.70;;;1.35;;
5912;SDS011;2982;42.684;23.356;2023-08-07T08:21:34;1.52;;;0.90;;
5912;SDS011;2982;42.684;23.356;2023-08-07T08:23:59;1.27;;;1.17;;
5912;SDS011;2982;42.684;23.356;2023-08-07T08:26:24;0.65;;;0.65;;
5912;SDS011;2982;42.684;23.356;2023-08-07T08:28:49;0.93;;;0.80;;
5912;SDS011;2982;42.684;23.356;2023-08-07T08:31:14;1.02;;;0.90;;
5912;SDS011;2982;42.684;23.356;2023-08-07T08:33:39;1.13;;;0.60;;
5912;SDS011;2982;42.684;23.356;2023-08-07T08:36:04;0.60;;;0.60;;
5912;SDS011;2982;42.684;23.356;2023-08-07T08:38:30;0.50;;;0.50;;
5912;SDS011;2982;42.684;23.356;2023-08-07T08:40:55;0.98;;;0.50;;
5912;SDS011;2982;42.684;23.356;2023-08-07T08:43:20;0.57;;;0.57;;
5912;SDS011;2982;42.684;23.356;2023-08-07T08:45:45;1.25;;;0.65;;
5912;SDS011;2982;42.684;23.356;2023-08-07T08:48:11;0.90;;;0.70;;
5912;SDS011;2982;42.684;23.356;2023-08-07T08:50:39;0.50;;;0.50;;
5912;SDS011;2982;42.684;23.356;2023-08-07T08:53:04;0.57;;;0.57;;
5912;SDS011;2982;42.684;23.356;2023-08-07T08:55:29;0.60;;;0.60;;
5912;SDS011;2982;42.684;23.356;2023-08-07T08:57:55;0.85;;;0.77;;
5912;SDS011;2982;42.684;23.356;2023-08-07T09:00:20;2.25;;;0.90;;
5912;SDS011;2982;42.684;23.356;2023-08-07T09:02:46;1.67;;;0.60;;
5912;SDS011;2982;42.684;23.356;2023-08-07T09:05:13;1.70;;;0.80;;
5912;SDS011;2982;42.684;23.356;2023-08-07T09:07:38;2.60;;;0.70;;
5912;SDS011;2982;42.684;23.356;2023-08-07T09:10:03;0.57;;;0.57;;
5912;SDS011;2982;42.684;23.356;2023-08-07T09:12:29;1.85;;;0.90;;
5912;SDS011;2982;42.684;23.356;2023-08-07T09:14:57;0.60;;;0.60;;
5912;SDS011;2982;42.684;23.356;2023-08-07T09:17:29;1.05;;;0.98;;
5912;SDS011;2982;42.684;23.356;2023-08-07T09:19:55;2.22;;;0.98;;
5912;SDS011;2982;42.684;23.356;2023-08-07T09:22:21;3.15;;;0.70;;
5912;SDS011;2982;42.684;23.356;2023-08-07T09:24:46;0.57;;;0.57;;
5912;SDS011;2982;42.684;23.356;2023-08-07T09:27:11;2.97;;;1.00;;
5912;SDS011;2982;42.684;23.356;2023-08-07T09:29:39;0.70;;;0.70;;
5912;SDS011;2982;42.684;23.356;2023-08-07T09:32:13;0.70;;;0.70;;
5912;SDS011;2982;42.684;23.356;2023-08-07T09:34:39;0.70;;;0.70;;
5912;SDS011;2982;42.684;23.356;2023-08-07T09:37:04;0.90;;;0.90;;
5912;SDS011;2982;42.684;23.356;2023-08-07T09:39:29;1.77;;;0.70;;
5912;SDS011;2982;42.684;23.356;2023-08-07T09:41:55;1.98;;;0.68;;
5912;SDS011;2982;42.684;23.356;2023-08-07T09:44:20;1.50;;;0.70;;
5912;SDS011;2982;42.684;23.356;2023-08-07T09:46:46;1.60;;;0.70;;
5912;SDS011;2982;42.684;23.356;2023-08-07T09:49:11;0.70;;;0.70;;
5912;SDS011;2982;42.684;23.356;2023-08-07T09:51:46;1.15;;;0.80;;
5912;SDS011;2982;42.684;23.356;2023-08-07T09:54:11;0.80;;;0.73;;
5912;SDS011;2982;42.684;23.356;2023-08-07T09:56:37;0.80;;;0.80;;
5912;SDS011;2982;42.684;23.356;2023-08-07T09:59:03;2.00;;;1.00;;
5912;SDS011;2982;42.684;23.356;2023-08-07T10:01:28;3.53;;;0.95;;
5912;SDS011;2982;42.684;23.356;2023-08-07T10:03:53;0.80;;;0.80;;
5912;SDS011;2982;42.684;23.356;2023-08-07T10:06:19;4.82;;;1.13;;
5912;SDS011;2982;42.684;23.356;2023-08-07T10:08:44;0.98;;;0.77;;
5912;SDS011;2982;42.684;23.356;2023-08-07T10:11:10;0.70;;;0.70;;
5912;SDS011;2982;42.684;23.356;2023-08-07T10:13:36;1.00;;;0.70;;
5912;SDS011;2982;42.684;23.356;2023-08-07T10:16:01;2.40;;;0.65;;
5912;SDS011;2982;42.684;23.356;2023-08-07T10:18:27;1.00;;;1.00;;
5912;SDS011;2982;42.684;23.356;2023-08-07T10:20:53;1.42;;;1.08;;
5912;SDS011;2982;42.684;23.356;2023-08-07T10:23:18;0.98;;;0.80;;
5912;SDS011;2982;42.684;23.356;2023-08-07T10:25:43;0.93;;;0.93;;
5912;SDS011;2982;42.684;23.356;2023-08-07T10:28:11;1.02;;;0.70;;
5912;SDS011;2982;42.684;23.356;2023-08-07T10:30:37;0.80;;;0.80;;
5912;SDS011;2982;42.684;23.356;2023-08-07T10:33:03;0.80;;;0.80;;
5912;SDS011;2982;42.684;23.356;2023-08-07T10:35:30;0.80;;;0.73;;
5912;SDS011;2982;42.684;23.356;2023-08-07T10:37:55;0.90;;;0.90;;
5912;SDS011;2982;42.684;23.356;2023-08-07T10:40:29;0.93;;;0.90;;
5912;SDS011;2982;42.684;23.356;2023-08-07T10:45:21;0.88;;;0.80;;
5912;SDS011;2982;42.684;23.356;2023-08-07T10:50:28;1.55;;;1.10;;
5912;SDS011;2982;42.684;23.356;2023-08-07T10:52:53;0.60;;;0.60;;
5912;SDS011;2982;42.684;23.356;2023-08-07T10:55:18;1.97;;;1.17;;
5912;SDS011;2982;42.684;23.356;2023-08-07T10:57:44;1.10;;;0.83;;
5912;SDS011;2982;42.684;23.356;2023-08-07T11:00:11;1.65;;;0.60;;
5912;SDS011;2982;42.684;23.356;2023-08-07T11:02:37;1.92;;;0.80;;
5912;SDS011;2982;42.684;23.356;2023-08-07T11:05:03;0.70;;;0.70;;
5912;SDS011;2982;42.684;23.356;2023-08-07T11:07:29;1.17;;;0.85;;
5912;SDS011;2982;42.684;23.356;2023-08-07T11:09:55;0.82;;;0.82;;
5912;SDS011;2982;42.684;23.356;2023-08-07T11:12:20;0.70;;;0.70;;
5912;SDS011;2982;42.684;23.356;2023-08-07T11:14:45;0.82;;;0.82;;
5912;SDS011;2982;42.684;23.356;2023-08-07T11:17:11;1.00;;;1.00;;
5912;SDS011;2982;42.684;23.356;2023-08-07T11:19:36;0.77;;;0.77;;
5912;SDS011;2982;42.684;23.356;2023-08-07T11:22:01;1.88;;;0.90;;
5912;SDS011;2982;42.684;23.356;2023-08-07T11:24:27;0.77;;;0.75;;
5912;SDS011;2982;42.684;23.356;2023-08-07T11:26:52;0.88;;;0.88;;
5912;SDS011;2982;42.684;23.356;2023-08-07T11:29:17;1.23;;;0.70;;
5912;SDS011;2982;42.684;23.356;2023-08-07T11:31:42;0.80;;;0.80;;
5912;SDS011;2982;42.684;23.356;2023-08-07T11:34:08;0.80;;;0.80;;
5912;SDS011;2982;42.684;23.356;2023-08-07T11:36:41;1.25;;;1.05;;
5912;SDS011;2982;42.684;23.356;2023-08-07T11:39:06;3.75;;;0.82;;
5912;SDS011;2982;42.684;23.356;2023-08-07T11:41:31;3.90;;;0.77;;
5912;SDS011;2982;42.684;23.356;2023-08-07T11:43:56;0.80;;;0.80;;
5912;SDS011;2982;42.684;23.356;2023-08-07T11:46:21;1.90;;;0.80;;
5912;SDS011;2982;42.684;23.356;2023-08-07T11:48:47;0.98;;;0.98;;
5912;SDS011;2982;42.684;23.356;2023-08-07T11:51:12;1.20;;;0.80;;
5912;SDS011;2982;42.684;23.356;2023-08-07T11:53:38;0.80;;;0.80;;
5912;SDS011;2982;42.684;23.356;2023-08-07T11:56:07;0.80;;;0.80;;
5912;SDS011;2982;42.684;23.356;2023-08-07T11:58:36;1.15;;;1.15;;
5912;SDS011;2982;42.684;23.356;2023-08-07T12:01:05;0.70;;;0.70;;
5912;SDS011;2982;42.684;23.356;2023-08-07T12:03:31;1.95;;;0.70;;
5912;SDS011;2982;42.684;23.356;2023-08-07T12:05:57;0.70;;;0.70;;
5912;SDS011;2982;42.684;23.356;2023-08-07T12:08:22;1.00;;;1.00;;
5912;SDS011;2982;42.684;23.356;2023-08-07T12:10:51;1.85;;;0.70;;
5912;SDS011;2982;42.684;23.356;2023-08-07T12:13:16;2.95;;;0.82;;
5912;SDS011;2982;42.684;23.356;2023-08-07T12:15:44;0.82;;;0.82;;
5912;SDS011;2982;42.684;23.356;2023-08-07T12:18:09;1.17;;;0.80;;
5912;SDS011;2982;42.684;23.356;2023-08-07T12:20:35;1.08;;;0.75;;
5912;SDS011;2982;42.684;23.356;2023-08-07T12:23:00;0.80;;;0.80;;
5912;SDS011;2982;42.684;23.356;2023-08-07T12:25:25;1.30;;;0.80;;
5912;SDS011;2982;42.684;23.356;2023-08-07T12:27:50;1.73;;;0.80;;
5912;SDS011;2982;42.684;23.356;2023-08-07T12:30:16;1.60;;;0.75;;
5912;SDS011;2982;42.684;23.356;2023-08-07T12:32:41;1.03;;;1.03;;
5912;SDS011;2982;42.684;23.356;2023-08-07T12:35:06;1.17;;;0.70;;
5912;SDS011;2982;42.684;23.356;2023-08-07T12:37:31;0.88;;;0.88;;
5912;SDS011;2982;42.684;23.356;2023-08-07T12:39:56;0.67;;;0.67;;
5912;SDS011;2982;42.684;23.356;2023-08-07T12:42:21;1.58;;;0.88;;
5912;SDS011;2982;42.684;23.356;2023-08-07T12:44:47;1.20;;;1.20;;
5912;SDS011;2982;42.684;23.356;2023-08-07T12:47:12;1.05;;;1.02;;
5912;SDS011;2982;42.684;23.356;2023-08-07T12:49:37;1.37;;;0.90;;
5912;SDS011;2982;42.684;23.356;2023-08-07T12:52:02;1.02;;;0.93;;
5912;SDS011;2982;42.684;23.356;2023-08-07T12:54:27;1.10;;;1.08;;
5912;SDS011;2982;42.684;23.356;2023-08-07T12:56:52;1.08;;;0.98;;
5912;SDS011;2982;42.684;23.356;2023-08-07T12:59:17;0.75;;;0.75;;
5912;SDS011;2982;42.684;23.356;2023-08-07T13:01:43;1.30;;;0.80;;
5912;SDS011;2982;42.684;23.356;2023-08-07T13:04:08;1.90;;;0.90;;
5912;SDS011;2982;42.684;23.356;2023-08-07T13:06:33;0.93;;;0.90;;
5912;SDS011;2982;42.684;23.356;2023-08-07T13:08:58;4.05;;;0.90;;
5912;SDS011;2982;42.684;23.356;2023-08-07T13:11:23;1.00;;;0.90;;
5912;SDS011;2982;42.684;23.356;2023-08-07T13:13:48;1.33;;;1.17;;
5912;SDS011;2982;42.684;23.356;2023-08-07T13:16:14;0.85;;;0.70;;
5912;SDS011;2982;42.684;23.356;2023-08-07T13:18:39;1.65;;;1.23;;
5912;SDS011;2982;42.684;23.356;2023-08-07T13:21:04;0.98;;;0.98;;
5912;SDS011;2982;42.684;23.356;2023-08-07T13:23:29;3.00;;;1.00;;
5912;SDS011;2982;42.684;23.356;2023-08-07T13:25:54;1.07;;;0.97;;
5912;SDS011;2982;42.684;23.356;2023-08-07T13:28:19;1.93;;;0.90;;
5912;SDS011;2982;42.684;23.356;2023-08-07T13:30:44;1.23;;;1.00;;
5912;SDS011;2982;42.684;23.356;2023-08-07T13:33:09;2.47;;;0.88;;
5912;SDS011;2982;42.684;23.356;2023-08-07T13:35:35;2.42;;;1.00;;
5912;SDS011;2982;42.684;23.356;2023-08-07T13:38:00;1.23;;;1.13;;
5912;SDS011;2982;42.684;23.356;2023-08-07T13:40:25;2.10;;;0.70;;
5912;SDS011;2982;42.684;23.356;2023-08-07T13:42:50;1.42;;;0.77;;
5912;SDS011;2982;42.684;23.356;2023-08-07T13:45:15;0.77;;;0.77;;
5912;SDS011;2982;42.684;23.356;2023-08-07T13:47:40;1.05;;;0.95;;
5912;SDS011;2982;42.684;23.356;2023-08-07T13:50:06;0.90;;;0.90;;
5912;SDS011;2982;42.684;23.356;2023-08-07T13:52:31;0.90;;;0.90;;
5912;SDS011;2982;42.684;23.356;2023-08-07T13:54:56;0.80;;;0.80;;
5912;SDS011;2982;42.684;23.356;2023-08-07T13:57:21;1.00;;;1.00;;
5912;SDS011;2982;42.684;23.356;2023-08-07T13:59:46;0.70;;;0.70;;
5912;SDS011;2982;42.684;23.356;2023-08-07T14:02:11;1.13;;;1.02;;
5912;SDS011;2982;42.684;23.356;2023-08-07T14:04:37;1.20;;;1.10;;
5912;SDS011;2982;42.684;23.356;2023-08-07T14:07:02;1.17;;;1.13;;
5912;SDS011;2982;42.684;23.356;2023-08-07T14:09:27;2.28;;;1.00;;
5912;SDS011;2982;42.684;23.356;2023-08-07T14:11:53;1.08;;;1.00;;
5912;SDS011;2982;42.684;23.356;2023-08-07T14:14:18;1.70;;;0.90;;
5912;SDS011;2982;42.684;23.356;2023-08-07T14:16:43;0.95;;;0.77;;
5912;SDS011;2982;42.684;23.356;2023-08-07T14:19:08;0.80;;;0.70;;
5912;SDS011;2982;42.684;23.356;2023-08-07T14:21:34;1.80;;;0.85;;
5912;SDS011;2982;42.684;23.356;2023-08-07T14:23:59;0.90;;;0.90;;
5912;SDS011;2982;42.684;23.356;2023-08-07T14:26:24;0.90;;;0.90;;
5912;SDS011;2982;42.684;23.356;2023-08-07T14:28:49;1.20;;;1.10;;
5912;SDS011;2982;42.684;23.356;2023-08-07T14:31:14;0.97;;;0.97;;
5912;SDS011;2982;42.684;23.356;2023-08-07T14:33:39;0.93;;;0.93;;
5912;SDS011;2982;42.684;23.356;2023-08-07T14:36:05;0.80;;;0.80;;
5912;SDS011;2982;42.684;23.356;2023-08-07T14:38:30;0.75;;;0.75;;
5912;SDS011;2982;42.684;23.356;2023-08-07T14:40:55;1.77;;;0.87;;
5912;SDS011;2982;42.684;23.356;2023-08-07T14:43:21;2.67;;;0.88;;
5912;SDS011;2982;42.684;23.356;2023-08-07T14:45:46;3.30;;;0.83;;
5912;SDS011;2982;42.684;23.356;2023-08-07T14:48:12;3.40;;;1.00;;
5912;SDS011;2982;42.684;23.356;2023-08-07T14:50:37;4.40;;;1.38;;
5912;SDS011;2982;42.684;23.356;2023-08-07T14:53:02;1.02;;;0.85;;
5912;SDS011;2982;42.684;23.356;2023-08-07T14:55:27;1.02;;;1.02;;
5912;SDS011;2982;42.684;23.356;2023-08-07T14:57:52;0.98;;;0.98;;